createdAt,value
2018-04-18T00:00:38.043Z,102356
2018-04-18T00:03:06.201Z,102362
2018-04-18T00:05:34.320Z,102362
2018-04-18T00:08:02.482Z,102366
2018-04-18T00:10:30.629Z,102361
2018-04-18T00:12:58.822Z,102365
2018-04-18T00:15:26.981Z,102367
2018-04-18T00:17:55.139Z,102362
2018-04-18T00:20:23.353Z,102363
2018-04-18T00:22:51.500Z,102364
2018-04-18T00:25:19.650Z,102372
2018-04-18T00:27:47.781Z,102369
2018-04-18T00:30:16.023Z,102364
2018-04-18T00:32:44.261Z,102372
2018-04-18T00:35:12.385Z,102366
2018-04-18T00:37:40.564Z,102371
2018-04-18T00:40:08.735Z,102374
2018-04-18T00:42:36.895Z,102376
2018-04-18T00:45:05.044Z,102378
2018-04-18T00:47:33.238Z,102385
2018-04-18T00:50:01.418Z,102382
2018-04-18T00:52:29.571Z,102378
2018-04-18T00:54:57.705Z,102385
2018-04-18T00:57:26.601Z,102376
2018-04-18T00:59:54.749Z,102381
2018-04-18T01:02:22.922Z,102383
2018-04-18T01:04:51.816Z,102378
2018-04-18T01:07:20.757Z,102378
2018-04-18T01:09:48.914Z,102376
2018-04-18T01:12:17.086Z,102382
2018-04-18T01:14:45.212Z,102387
2018-04-18T01:17:13.982Z,102385
2018-04-18T01:19:42.159Z,102383
2018-04-18T01:22:10.321Z,102388
2018-04-18T01:24:38.493Z,102383
2018-04-18T01:27:06.621Z,102383
2018-04-18T01:29:35.512Z,102382
2018-04-18T01:32:03.705Z,102378
2018-04-18T01:34:31.840Z,102385
2018-04-18T01:36:59.985Z,102390
2018-04-18T01:39:28.121Z,102402
2018-04-18T01:41:56.260Z,102404
2018-04-18T01:44:25.153Z,102406
2018-04-18T01:46:54.114Z,102409
2018-04-18T01:49:38.933Z,102405
2018-04-18T01:52:07.117Z,102405
2018-04-18T01:54:35.273Z,102414
2018-04-18T01:57:03.408Z,102409
2018-04-18T01:59:31.589Z,102421
2018-04-18T02:02:00.521Z,102418
2018-04-18T02:04:28.643Z,102413
2018-04-18T02:06:56.772Z,102420
2018-04-18T02:09:24.933Z,102417
2018-04-18T02:11:53.066Z,102415
2018-04-18T02:14:22.958Z,102426
2018-04-18T02:16:51.142Z,102422
2018-04-18T02:19:20.053Z,102424
2018-04-18T02:21:48.952Z,102424
2018-04-18T02:24:17.126Z,102429
2018-04-18T02:26:45.728Z,102419
2018-04-18T02:29:13.860Z,102428
2018-04-18T02:31:43.609Z,102429
2018-04-18T02:34:11.761Z,102428
2018-04-18T02:36:39.909Z,102430
2018-04-18T02:39:09.397Z,102433
2018-04-18T02:41:37.581Z,102436
2018-04-18T02:44:06.504Z,102438
2018-04-18T02:46:34.679Z,102437
2018-04-18T02:49:02.838Z,102442
2018-04-18T02:51:31.769Z,102435
2018-04-18T02:53:59.905Z,102435
2018-04-18T02:56:28.833Z,102445
2018-04-18T02:58:58.045Z,102442
2018-04-18T03:01:26.217Z,102447
2018-04-18T03:03:54.422Z,102438
2018-04-18T03:06:23.336Z,102440
2018-04-18T03:08:51.465Z,102444
2018-04-18T03:11:19.666Z,102440
2018-04-18T03:13:48.595Z,102437
2018-04-18T03:16:16.785Z,102441
2018-04-18T03:18:44.970Z,102451
2018-04-18T03:21:13.105Z,102445
2018-04-18T03:23:41.221Z,102442
2018-04-18T03:26:09.372Z,102444
2018-04-18T03:28:37.608Z,102441
2018-04-18T03:31:05.762Z,102446
2018-04-18T03:33:34.912Z,102455
2018-04-18T03:36:03.046Z,102446
2018-04-18T03:38:31.947Z,102456
2018-04-18T03:41:00.117Z,102464
2018-04-18T03:43:28.283Z,102452
2018-04-18T03:45:56.449Z,102458
2018-04-18T03:48:24.605Z,102459
2018-04-18T03:50:52.904Z,102466
2018-04-18T03:53:21.020Z,102460
2018-04-18T03:55:49.173Z,102472
2018-04-18T03:58:17.545Z,102463
2018-04-18T04:00:45.678Z,102474
2018-04-18T04:03:14.629Z,102469
2018-04-18T04:05:42.765Z,102466
2018-04-18T04:08:10.895Z,102468
2018-04-18T04:10:39.048Z,102470
2018-04-18T04:13:07.184Z,102479
2018-04-18T04:15:35.342Z,102468
2018-04-18T04:18:21.293Z,102484
2018-04-18T04:21:07.389Z,102470
2018-04-18T04:23:54.372Z,102475
2018-04-18T04:26:22.524Z,102475
2018-04-18T04:28:50.645Z,102467
2018-04-18T04:31:18.773Z,102472
2018-04-18T04:33:46.913Z,102469
2018-04-18T04:36:16.449Z,102475
2018-04-18T04:38:44.573Z,102475
2018-04-18T04:41:12.709Z,102485
2018-04-18T04:43:40.912Z,102485
2018-04-18T04:46:09.081Z,102493
2018-04-18T04:48:37.216Z,102489
2018-04-18T04:51:05.366Z,102498
2018-04-18T04:53:34.297Z,102501
2018-04-18T04:56:02.470Z,102503
2018-04-18T04:58:30.834Z,102505
2018-04-18T05:00:58.993Z,102505
2018-04-18T05:03:27.183Z,102511
2018-04-18T05:05:55.307Z,102506
2018-04-18T05:08:23.428Z,102512
2018-04-18T05:10:51.617Z,102516
2018-04-18T05:13:19.744Z,102526
2018-04-18T05:15:48.628Z,102519
2018-04-18T05:18:17.574Z,102528
2018-04-18T05:20:45.700Z,102519
2018-04-18T05:23:13.857Z,102534
2018-04-18T05:25:42.816Z,102527
2018-04-18T05:28:10.980Z,102521
2018-04-18T05:30:39.114Z,102536
2018-04-18T05:33:07.239Z,102535
2018-04-18T05:35:35.389Z,102535
2018-04-18T05:38:03.541Z,102534
2018-04-18T05:40:31.713Z,102540
2018-04-18T05:42:59.918Z,102539
2018-04-18T05:45:28.077Z,102534
2018-04-18T05:47:56.258Z,102540
2018-04-18T05:50:24.443Z,102536
2018-04-18T05:52:52.613Z,102535
2018-04-18T05:55:20.800Z,102541
2018-04-18T05:57:48.976Z,102542
2018-04-18T06:00:17.220Z,102550
2018-04-18T06:02:45.393Z,102550
2018-04-18T06:05:13.570Z,102554
2018-04-18T06:07:41.747Z,102553
2018-04-18T06:10:09.981Z,102551
2018-04-18T06:12:38.143Z,102557
2018-04-18T06:15:06.301Z,102559
2018-04-18T06:17:35.216Z,102564
2018-04-18T06:20:03.391Z,102568
2018-04-18T06:22:31.521Z,102566
2018-04-18T06:24:59.713Z,102561
2018-04-18T06:27:28.643Z,102557
2018-04-18T06:29:56.772Z,102572
2018-04-18T06:32:25.001Z,102566
2018-04-18T06:34:53.188Z,102577
2018-04-18T06:37:21.465Z,102571
2018-04-18T06:39:49.608Z,102577
2018-04-18T06:42:17.759Z,102577
2018-04-18T06:44:45.928Z,102586
2018-04-18T06:47:14.820Z,102567
2018-04-18T06:49:43.755Z,102581
2018-04-18T06:52:11.913Z,102580
2018-04-18T06:54:40.058Z,102586
2018-04-18T06:57:08.216Z,102586
2018-04-18T06:59:37.153Z,102593
2018-04-18T07:02:05.451Z,102590
2018-04-18T07:04:33.610Z,102592
2018-04-18T07:07:01.782Z,102588
2018-04-18T07:09:29.949Z,102588
2018-04-18T07:11:58.085Z,102595
2018-04-18T07:14:27.018Z,102597
2018-04-18T07:16:55.240Z,102604
2018-04-18T07:19:23.750Z,102595
2018-04-18T07:22:02.058Z,102594
2018-04-18T07:24:30.226Z,102608
2018-04-18T07:26:58.365Z,102599
2018-04-18T07:29:26.559Z,102605
2018-04-18T07:31:54.693Z,102606
2018-04-18T07:34:22.849Z,102606
2018-04-18T07:36:50.991Z,102608
2018-04-18T07:39:19.143Z,102617
2018-04-18T07:41:48.039Z,102607
2018-04-18T07:44:17.092Z,102612
2018-04-18T07:46:45.245Z,102622
2018-04-18T07:49:14.299Z,102618
2018-04-18T07:51:42.832Z,102624
2018-04-18T07:54:10.964Z,102626
2018-04-18T07:56:39.111Z,102616
2018-04-18T07:59:08.015Z,102620
2018-04-18T08:01:36.903Z,102618
2018-04-18T08:04:05.954Z,102617
2018-04-18T08:06:34.126Z,102633
2018-04-18T08:09:02.299Z,102630
2018-04-18T08:11:30.456Z,102623
2018-04-18T08:13:58.606Z,102631
2018-04-18T08:16:26.773Z,102633
2018-04-18T08:18:54.922Z,102640
2018-04-18T08:21:23.817Z,102643
2018-04-18T08:23:52.025Z,102641
2018-04-18T08:26:20.149Z,102641
2018-04-18T08:28:48.303Z,102639
2018-04-18T08:31:16.480Z,102650
2018-04-18T08:33:45.429Z,102648
2018-04-18T08:36:13.556Z,102645
2018-04-18T08:38:41.738Z,102648
2018-04-18T08:41:10.669Z,102643
2018-04-18T08:43:38.789Z,102644
2018-04-18T08:46:06.963Z,102644
2018-04-18T08:48:35.093Z,102650
2018-04-18T08:51:03.248Z,102650
2018-04-18T08:53:31.383Z,102651
2018-04-18T08:55:59.546Z,102657
2018-04-18T08:58:27.684Z,102653
2018-04-18T09:00:55.804Z,102648
2018-04-18T09:03:24.767Z,102648
2018-04-18T09:05:52.922Z,102653
2018-04-18T09:08:21.087Z,102649
2018-04-18T09:10:49.518Z,102650
2018-04-18T09:13:18.469Z,102648
2018-04-18T09:15:46.629Z,102643
2018-04-18T09:18:14.734Z,102640
2018-04-18T09:20:43.641Z,102638
2018-04-18T09:23:11.874Z,102642
2018-04-18T09:25:39.997Z,102631
2018-04-18T09:28:09.047Z,102640
2018-04-18T09:30:37.209Z,102619
2018-04-18T09:33:05.382Z,102618
2018-04-18T09:35:33.566Z,102627
2018-04-18T09:38:01.730Z,102614
2018-04-18T09:40:29.856Z,102622
2018-04-18T09:42:58.765Z,102615
2018-04-18T09:45:26.935Z,102611
2018-04-18T09:47:55.071Z,102599
2018-04-18T09:50:23.260Z,102613
2018-04-18T09:52:52.148Z,102613
2018-04-18T09:55:21.044Z,102610
2018-04-18T09:57:50.197Z,102617
2018-04-18T10:00:18.316Z,102617
2018-04-18T10:02:52.954Z,102615
2018-04-18T10:05:21.097Z,102620
2018-04-18T10:07:50.118Z,102615
2018-04-18T10:10:18.262Z,102622
2018-04-18T10:12:47.199Z,102620
2018-04-18T10:15:15.322Z,102616
2018-04-18T10:17:43.464Z,102612
2018-04-18T10:20:11.648Z,102607
2018-04-18T10:22:39.825Z,102610
2018-04-18T10:25:07.952Z,102611
2018-04-18T10:27:36.081Z,102601
2018-04-18T10:30:04.198Z,102611
2018-04-18T10:32:32.363Z,102612
2018-04-18T10:35:01.025Z,102607
2018-04-18T10:37:29.925Z,102614
2018-04-18T10:39:58.090Z,102602
2018-04-18T10:42:27.095Z,102609
2018-04-18T10:44:55.257Z,102616
2018-04-18T10:47:23.459Z,102609
2018-04-18T10:49:51.614Z,102603
2018-04-18T10:52:19.745Z,102607
2018-04-18T10:54:47.861Z,102607
2018-04-18T10:57:16.004Z,102609
2018-04-18T10:59:44.922Z,102608
2018-04-18T11:02:13.538Z,102610
2018-04-18T11:04:41.784Z,102607
2018-04-18T11:07:09.924Z,102611
2018-04-18T11:09:38.040Z,102605
2018-04-18T11:12:06.173Z,102605
2018-04-18T11:14:35.056Z,102609
2018-04-18T11:17:03.230Z,102609
2018-04-18T11:19:32.129Z,102614
2018-04-18T11:22:01.022Z,102616
2018-04-18T11:24:29.969Z,102611
2018-04-18T11:26:58.087Z,102604
2018-04-18T11:29:26.281Z,102611
2018-04-18T11:31:54.421Z,102623
2018-04-18T11:34:23.308Z,102611
2018-04-18T11:36:52.254Z,102611
2018-04-18T11:39:20.421Z,102617
2018-04-18T11:41:48.603Z,102616
2018-04-18T11:44:16.778Z,102616
2018-04-18T11:46:45.149Z,102602
2018-04-18T11:49:13.299Z,102618
2018-04-18T11:51:41.454Z,102622
2018-04-18T11:54:09.637Z,102617
2018-04-18T11:56:37.769Z,102626
2018-04-18T11:59:06.574Z,102624
2018-04-18T12:01:35.481Z,102623
2018-04-18T12:04:03.633Z,102617
2018-04-18T12:06:31.731Z,102610
2018-04-18T12:09:00.078Z,102619
2018-04-18T12:11:28.240Z,102610
2018-04-18T12:13:57.170Z,102622
2018-04-18T12:16:25.385Z,102604
2018-04-18T12:18:53.548Z,102604
2018-04-18T12:21:21.715Z,102605
2018-04-18T12:23:49.870Z,102608
2018-04-18T12:26:18.025Z,102612
2018-04-18T12:28:46.998Z,102601
2018-04-18T12:31:15.895Z,102602
2018-04-18T12:33:44.845Z,102608
2018-04-18T12:36:12.972Z,102605
2018-04-18T12:38:41.888Z,102598
2018-04-18T12:41:10.062Z,102598
2018-04-18T12:43:38.231Z,102606
2018-04-18T12:46:06.357Z,102597
2018-04-18T12:48:34.988Z,102600
2018-04-18T12:51:03.117Z,102599
2018-04-18T12:53:31.461Z,102598
2018-04-18T12:55:59.606Z,102601
2018-04-18T12:58:28.477Z,102599
2018-04-18T13:00:56.604Z,102594
2018-04-18T13:03:24.731Z,102596
2018-04-18T13:05:52.844Z,102589
2018-04-18T13:08:20.983Z,102597
2018-04-18T13:10:49.105Z,102593
2018-04-18T13:13:17.221Z,102589
2018-04-18T13:15:45.377Z,102593
2018-04-18T13:18:13.488Z,102583
2018-04-18T13:20:41.744Z,102575
2018-04-18T13:23:10.018Z,102563
2018-04-18T13:25:38.177Z,102569
2018-04-18T13:28:06.328Z,102571
2018-04-18T13:30:35.262Z,102569
2018-04-18T13:33:03.456Z,102572
2018-04-18T13:35:31.609Z,102581
2018-04-18T13:37:59.732Z,102572
2018-04-18T13:40:28.691Z,102575
2018-04-18T13:42:56.845Z,102568
2018-04-18T13:45:25.058Z,102572
2018-04-18T13:47:53.210Z,102571
2018-04-18T13:50:21.336Z,102571
2018-04-18T13:52:49.452Z,102562
2018-04-18T13:55:17.604Z,102565
2018-04-18T13:57:46.135Z,102563
2018-04-18T14:00:14.273Z,102557
2018-04-18T14:02:42.423Z,102560
2018-04-18T14:05:10.567Z,102570
2018-04-18T14:07:39.456Z,102551
2018-04-18T14:10:08.486Z,102558
2018-04-18T14:12:36.633Z,102561
2018-04-18T14:15:04.756Z,102551
2018-04-18T14:17:33.753Z,102564
2018-04-18T14:20:02.543Z,102563
2018-04-18T14:22:30.685Z,102560
2018-04-18T14:24:58.844Z,102554
2018-04-18T14:27:27.006Z,102553
2018-04-18T14:29:55.154Z,102553
2018-04-18T14:32:24.055Z,102559
2018-04-18T14:34:53.776Z,102550
2018-04-18T14:37:21.925Z,102551
2018-04-18T14:39:50.842Z,102556
2018-04-18T14:42:18.968Z,102545
2018-04-18T14:44:47.117Z,102541
2018-04-18T14:47:15.382Z,102549
2018-04-18T14:49:43.505Z,102555
2018-04-18T14:52:11.680Z,102545
2018-04-18T14:54:40.569Z,102533
2018-04-18T14:57:09.488Z,102537
2018-04-18T14:59:38.370Z,102537
2018-04-18T15:02:06.489Z,102546
2018-04-18T15:04:34.610Z,102547
2018-04-18T15:07:04.304Z,102538
2018-04-18T15:09:32.512Z,102532
2018-04-18T15:12:00.633Z,102533
2018-04-18T15:14:28.792Z,102537
2018-04-18T15:16:57.056Z,102528
2018-04-18T15:19:25.169Z,102526
2018-04-18T15:21:54.095Z,102534
2018-04-18T15:24:22.971Z,102530
2018-04-18T15:26:51.185Z,102538
2018-04-18T15:29:19.330Z,102531
2018-04-18T15:31:47.524Z,102531
2018-04-18T15:34:15.644Z,102526
2018-04-18T15:36:44.556Z,102532
2018-04-18T15:39:12.693Z,102531
2018-04-18T15:41:40.962Z,102529
2018-04-18T15:44:09.121Z,102530
2018-04-18T15:46:37.286Z,102523
2018-04-18T15:49:05.438Z,102525
2018-04-18T15:51:33.609Z,102535
2018-04-18T15:54:01.769Z,102530
2018-04-18T15:56:29.905Z,102527
2018-04-18T15:58:58.079Z,102526
2018-04-18T16:01:26.975Z,102524
2018-04-18T16:03:55.884Z,102524
2018-04-18T16:06:24.039Z,102526
2018-04-18T16:08:52.924Z,102520
2018-04-18T16:11:21.820Z,102530
2018-04-18T16:13:50.728Z,102521
2018-04-18T16:16:18.934Z,102521
2018-04-18T16:18:47.109Z,102522
2018-04-18T16:21:15.653Z,102521
2018-04-18T16:23:45.850Z,102519
2018-04-18T16:26:14.806Z,102522
2018-04-18T16:28:42.937Z,102520
2018-04-18T16:31:11.053Z,102523
2018-04-18T16:33:39.238Z,102515
2018-04-18T16:36:07.394Z,102521
2018-04-18T16:38:45.462Z,102522
2018-04-18T16:41:14.666Z,102519
2018-04-18T16:43:43.417Z,102520
2018-04-18T16:46:12.537Z,102520
2018-04-18T16:48:41.697Z,102513
2018-04-18T16:51:10.655Z,102524
2018-04-18T16:53:39.765Z,102519
2018-04-18T16:56:08.004Z,102516
2018-04-18T16:58:36.853Z,102515
2018-04-18T17:01:04.990Z,102515
2018-04-18T17:03:33.241Z,102519
2018-04-18T17:06:01.362Z,102516
2018-04-18T17:08:29.530Z,102520
2018-04-18T17:10:57.798Z,102517
2018-04-18T17:13:26.021Z,102514
2018-04-18T17:15:54.157Z,102517
2018-04-18T17:18:22.281Z,102518
2018-04-18T17:20:50.521Z,102514
2018-04-18T17:23:19.566Z,102511
2018-04-18T17:25:47.685Z,102514
2018-04-18T17:28:26.535Z,102517
2018-04-18T17:30:54.703Z,102524
2018-04-18T17:33:23.020Z,102514
2018-04-18T17:35:51.171Z,102512
2018-04-18T17:38:19.305Z,102518
2018-04-18T17:40:48.221Z,102520
2018-04-18T17:43:16.508Z,102525
2018-04-18T17:45:45.489Z,102520
2018-04-18T17:48:13.614Z,102521
2018-04-18T17:50:41.794Z,102513
2018-04-18T17:53:10.009Z,102509
2018-04-18T17:55:48.089Z,102515
2018-04-18T17:58:16.980Z,102521
2018-04-18T18:00:48.673Z,102520
2018-04-18T18:03:16.804Z,102526
2018-04-18T18:05:45.719Z,102521
2018-04-18T18:08:13.998Z,102520
2018-04-18T18:10:42.935Z,102515
2018-04-18T18:13:11.177Z,102520
2018-04-18T18:15:39.748Z,102519
2018-04-18T18:18:07.956Z,102512
2018-04-18T18:20:36.072Z,102522
2018-04-18T18:23:05.002Z,102524
2018-04-18T18:25:33.178Z,102524
2018-04-18T18:28:01.330Z,102521
2018-04-18T18:30:29.453Z,102511
2018-04-18T18:32:57.605Z,102522
2018-04-18T18:35:25.802Z,102519
2018-04-18T18:37:53.926Z,102530
2018-04-18T18:40:22.077Z,102534
2018-04-18T18:42:50.258Z,102530
2018-04-18T18:45:18.385Z,102540
2018-04-18T18:47:46.538Z,102540
2018-04-18T18:50:14.725Z,102543
2018-04-18T18:52:42.893Z,102545
2018-04-18T18:55:11.140Z,102544
2018-04-18T18:57:39.357Z,102558
2018-04-18T19:00:07.640Z,102553
2018-04-18T19:02:35.733Z,102551
2018-04-18T19:05:03.922Z,102555
2018-04-18T19:07:32.094Z,102556
2018-04-18T19:10:00.258Z,102553
2018-04-18T19:12:28.442Z,102559
2018-04-18T19:14:56.641Z,102555
2018-04-18T19:17:24.777Z,102558
2018-04-18T19:19:52.940Z,102557
2018-04-18T19:22:21.909Z,102560
2018-04-18T19:24:50.030Z,102558
2018-04-18T19:27:18.170Z,102556
2018-04-18T19:29:47.052Z,102565
2018-04-18T19:32:15.941Z,102565
2018-04-18T19:34:44.886Z,102558
2018-04-18T19:37:13.586Z,102558
2018-04-18T19:39:41.717Z,102559
2018-04-18T19:42:09.908Z,102566
2018-04-18T19:44:38.057Z,102562
2018-04-18T19:47:06.182Z,102560
2018-04-18T19:49:34.318Z,102560
2018-04-18T19:52:02.512Z,102556
2018-04-18T19:54:30.698Z,102560
2018-04-18T19:56:58.854Z,102554
2018-04-18T19:59:27.385Z,102563
2018-04-18T20:01:56.314Z,102561
2018-04-18T20:04:24.446Z,102564
2018-04-18T20:06:53.355Z,102563
2018-04-18T20:09:21.529Z,102566
2018-04-18T20:11:49.689Z,102569
2018-04-18T20:14:17.877Z,102566
2018-04-18T20:16:46.044Z,102571
2018-04-18T20:19:14.228Z,102573
2018-04-18T20:21:42.382Z,102558
2018-04-18T20:24:10.541Z,102567
2018-04-18T20:26:39.469Z,102575
2018-04-18T20:29:07.618Z,102577
2018-04-18T20:31:35.779Z,102574
2018-04-18T20:34:04.756Z,102574
2018-04-18T20:36:39.562Z,102565
2018-04-18T20:39:07.738Z,102576
2018-04-18T20:41:35.899Z,102576
2018-04-18T20:44:04.182Z,102576
2018-04-18T20:46:32.346Z,102572
2018-04-18T20:49:00.483Z,102573
2018-04-18T20:51:38.571Z,102566
2018-04-18T20:54:07.472Z,102564
2018-04-18T20:56:36.361Z,102570
2018-04-18T20:59:05.276Z,102579
2018-04-18T21:01:33.437Z,102578
2018-04-18T21:04:01.557Z,102570
2018-04-18T21:06:30.463Z,102568
2018-04-18T21:08:58.617Z,102580
2018-04-18T21:11:26.761Z,102582
2018-04-18T21:13:54.915Z,102576
2018-04-18T21:16:23.097Z,102579
2018-04-18T21:18:51.231Z,102586
2018-04-18T21:21:19.364Z,102589
2018-04-18T21:23:47.545Z,102585
2018-04-18T21:26:15.672Z,102593
2018-04-18T21:28:43.854Z,102598
2018-04-18T21:31:11.976Z,102597
2018-04-18T21:33:40.149Z,102595
2018-04-18T21:36:08.360Z,102600
2018-04-18T21:38:37.296Z,102606
2018-04-18T21:41:05.461Z,102606
2018-04-18T21:43:33.629Z,102594
2018-04-18T21:46:01.873Z,102601
2018-04-18T21:48:30.058Z,102597
2018-04-18T21:50:58.201Z,102602
2018-04-18T21:53:27.149Z,102610
2018-04-18T21:55:55.350Z,102609
2018-04-18T21:58:23.560Z,102604
2018-04-18T22:00:51.698Z,102607
2018-04-18T22:03:19.862Z,102608
2018-04-18T22:05:47.984Z,102602
2018-04-18T22:08:16.133Z,102601
2018-04-18T22:10:45.170Z,102602
2018-04-18T22:13:13.419Z,102603
2018-04-18T22:15:41.569Z,102596
2018-04-18T22:18:10.452Z,102598
2018-04-18T22:20:38.842Z,102595
2018-04-18T22:23:07.781Z,102606
2018-04-18T22:25:36.046Z,102604
2018-04-18T22:28:04.196Z,102602
2018-04-18T22:30:32.314Z,102604
2018-04-18T22:33:00.478Z,102606
2018-04-18T22:35:28.670Z,102613
2018-04-18T22:37:56.843Z,102610
2018-04-18T22:40:25.089Z,102611
2018-04-18T22:42:53.266Z,102618
2018-04-18T22:45:21.424Z,102614
2018-04-18T22:47:49.572Z,102610
2018-04-18T22:50:18.341Z,102612
2018-04-18T22:52:47.289Z,102613
2018-04-18T22:55:15.558Z,102618
2018-04-18T22:57:43.681Z,102625
2018-04-18T23:00:12.627Z,102623
2018-04-18T23:02:40.834Z,102627
2018-04-18T23:05:09.776Z,102625
2018-04-18T23:07:37.914Z,102629
2018-04-18T23:10:06.824Z,102627
2018-04-18T23:12:34.973Z,102632
2018-04-18T23:15:03.980Z,102626
2018-04-18T23:17:34.801Z,102628
2018-04-18T23:20:03.855Z,102628
2018-04-18T23:22:35.002Z,102628
2018-04-18T23:25:03.149Z,102629
2018-04-18T23:27:31.288Z,102623
2018-04-18T23:30:00.230Z,102622
2018-04-18T23:32:29.326Z,102641
2018-04-18T23:34:57.464Z,102623
2018-04-18T23:37:25.633Z,102623
2018-04-18T23:39:53.757Z,102622
2018-04-18T23:42:21.881Z,102619
2018-04-18T23:44:50.025Z,102615
2018-04-18T23:47:18.938Z,102618
2018-04-18T23:49:47.090Z,102616
2018-04-18T23:52:16.026Z,102615
2018-04-18T23:54:44.178Z,102619
2018-04-18T23:57:12.301Z,102619
2018-04-18T23:59:40.453Z,102619
